sensor_id;sensor_type;location;lat;lon;timestamp;temperature;humidity
12006;DHT22;6062;47.294;12.182;2023-03-20T00:02:02;4.60;68.20
12006;DHT22;6062;47.294;12.182;2023-03-20T00:04:28;4.60;67.90
12006;DHT22;6062;47.294;12.182;2023-03-20T00:06:54;4.60;68.00
12006;DHT22;6062;47.294;12.182;2023-03-20T00:09:20;4.50;68.00
12006;DHT22;6062;47.294;12.182;2023-03-20T00:11:48;4.50;68.20
12006;DHT22;6062;47.294;12.182;2023-03-20T00:14:18;4.50;68.50
12006;DHT22;6062;47.294;12.182;2023-03-20T00:16:48;4.50;68.80
12006;DHT22;6062;47.294;12.182;2023-03-20T00:19:19;4.50;68.80
12006;DHT22;6062;47.294;12.182;2023-03-20T00:21:51;4.50;69.10
12006;DHT22;6062;47.294;12.182;2023-03-20T00:24:18;4.50;68.80
12006;DHT22;6062;47.294;12.182;2023-03-20T00:26:45;4.50;68.80
12006;DHT22;6062;47.294;12.182;2023-03-20T00:29:26;4.50;68.90
12006;DHT22;6062;47.294;12.182;2023-03-20T00:31:55;4.50;69.20
12006;DHT22;6062;47.294;12.182;2023-03-20T00:34:25;4.50;69.60
12006;DHT22;6062;47.294;12.182;2023-03-20T00:36:54;4.50;69.20
12006;DHT22;6062;47.294;12.182;2023-03-20T00:39:24;4.50;69.20
12006;DHT22;6062;47.294;12.182;2023-03-20T00:41:55;4.50;69.00
12006;DHT22;6062;47.294;12.182;2023-03-20T00:44:39;4.50;69.20
12006;DHT22;6062;47.294;12.182;2023-03-20T00:47:18;4.50;69.50
12006;DHT22;6062;47.294;12.182;2023-03-20T00:49:47;4.60;69.10
12006;DHT22;6062;47.294;12.182;2023-03-20T00:52:16;4.60;69.20
12006;DHT22;6062;47.294;12.182;2023-03-20T00:54:43;4.60;69.80
12006;DHT22;6062;47.294;12.182;2023-03-20T00:57:18;4.60;69.60
12006;DHT22;6062;47.294;12.182;2023-03-20T00:59:57;4.60;69.70
12006;DHT22;6062;47.294;12.182;2023-03-20T01:02:26;4.60;69.70
12006;DHT22;6062;47.294;12.182;2023-03-20T01:04:53;4.60;69.60
12006;DHT22;6062;47.294;12.182;2023-03-20T01:07:19;4.60;69.40
12006;DHT22;6062;47.294;12.182;2023-03-20T01:09:46;4.60;69.40
12006;DHT22;6062;47.294;12.182;2023-03-20T01:12:12;4.60;69.50
12006;DHT22;6062;47.294;12.182;2023-03-20T01:14:40;4.60;69.50
12006;DHT22;6062;47.294;12.182;2023-03-20T01:17:18;4.60;69.50
12006;DHT22;6062;47.294;12.182;2023-03-20T01:19:46;4.60;69.70
12006;DHT22;6062;47.294;12.182;2023-03-20T01:22:12;4.70;69.30
12006;DHT22;6062;47.294;12.182;2023-03-20T01:24:39;4.70;69.20
12006;DHT22;6062;47.294;12.182;2023-03-20T01:27:14;4.70;69.30
12006;DHT22;6062;47.294;12.182;2023-03-20T01:29:41;4.70;69.40
12006;DHT22;6062;47.294;12.182;2023-03-20T01:32:25;4.70;69.10
12006;DHT22;6062;47.294;12.182;2023-03-20T01:34:51;4.70;69.20
12006;DHT22;6062;47.294;12.182;2023-03-20T01:37:25;4.70;68.80
12006;DHT22;6062;47.294;12.182;2023-03-20T01:39:52;4.80;69.10
12006;DHT22;6062;47.294;12.182;2023-03-20T01:42:20;4.80;68.80
12006;DHT22;6062;47.294;12.182;2023-03-20T01:44:46;4.80;68.80
12006;DHT22;6062;47.294;12.182;2023-03-20T01:47:18;4.80;68.80
12006;DHT22;6062;47.294;12.182;2023-03-20T01:50:17;4.80;68.90
12006;DHT22;6062;47.294;12.182;2023-03-20T01:53:05;4.80;69.10
12006;DHT22;6062;47.294;12.182;2023-03-20T01:55:36;4.80;68.90
12006;DHT22;6062;47.294;12.182;2023-03-20T01:58:08;4.80;68.60
12006;DHT22;6062;47.294;12.182;2023-03-20T02:00:39;4.80;68.80
12006;DHT22;6062;47.294;12.182;2023-03-20T02:03:06;4.80;68.80
12006;DHT22;6062;47.294;12.182;2023-03-20T02:05:34;4.80;68.90
12006;DHT22;6062;47.294;12.182;2023-03-20T02:08:28;4.70;68.70
12006;DHT22;6062;47.294;12.182;2023-03-20T02:10:57;4.80;69.10
12006;DHT22;6062;47.294;12.182;2023-03-20T02:13:27;4.70;68.80
12006;DHT22;6062;47.294;12.182;2023-03-20T02:16:08;4.70;69.00
12006;DHT22;6062;47.294;12.182;2023-03-20T02:18:38;4.70;69.10
12006;DHT22;6062;47.294;12.182;2023-03-20T02:30:10;4.70;69.00
12006;DHT22;6062;47.294;12.182;2023-03-20T02:42:11;4.60;69.20
12006;DHT22;6062;47.294;12.182;2023-03-20T02:47:26;4.60;69.60
12006;DHT22;6062;47.294;12.182;2023-03-20T02:50:26;4.50;70.00
12006;DHT22;6062;47.294;12.182;2023-03-20T02:56:15;4.50;70.60
12006;DHT22;6062;47.294;12.182;2023-03-20T03:02:21;4.50;70.50
12006;DHT22;6062;47.294;12.182;2023-03-20T03:04:56;4.50;70.70
12006;DHT22;6062;47.294;12.182;2023-03-20T03:07:27;4.40;70.20
12006;DHT22;6062;47.294;12.182;2023-03-20T03:10:24;4.40;70.20
12006;DHT22;6062;47.294;12.182;2023-03-20T03:12:55;4.40;70.70
12006;DHT22;6062;47.294;12.182;2023-03-20T03:15:37;4.40;70.90
12006;DHT22;6062;47.294;12.182;2023-03-20T03:18:06;4.40;70.50
12006;DHT22;6062;47.294;12.182;2023-03-20T03:20:38;4.40;70.40
12006;DHT22;6062;47.294;12.182;2023-03-20T03:23:05;4.40;70.20
12006;DHT22;6062;47.294;12.182;2023-03-20T03:25:35;4.40;70.10
12006;DHT22;6062;47.294;12.182;2023-03-20T03:28:07;4.40;70.30
12006;DHT22;6062;47.294;12.182;2023-03-20T03:30:36;4.40;70.50
12006;DHT22;6062;47.294;12.182;2023-03-20T03:33:20;4.40;70.40
12006;DHT22;6062;47.294;12.182;2023-03-20T03:35:47;4.40;70.50
12006;DHT22;6062;47.294;12.182;2023-03-20T03:46:51;4.40;70.50
12006;DHT22;6062;47.294;12.182;2023-03-20T03:49:25;4.40;70.20
12006;DHT22;6062;47.294;12.182;2023-03-20T03:51:59;4.40;70.80
12006;DHT22;6062;47.294;12.182;2023-03-20T03:54:44;4.40;70.10
12006;DHT22;6062;47.294;12.182;2023-03-20T03:57:15;4.40;70.70
12006;DHT22;6062;47.294;12.182;2023-03-20T03:59:49;4.40;70.60
12006;DHT22;6062;47.294;12.182;2023-03-20T04:02:17;4.40;70.50
12006;DHT22;6062;47.294;12.182;2023-03-20T04:04:49;4.40;70.60
12006;DHT22;6062;47.294;12.182;2023-03-20T04:07:17;4.40;70.70
12006;DHT22;6062;47.294;12.182;2023-03-20T04:09:43;4.40;70.80
12006;DHT22;6062;47.294;12.182;2023-03-20T04:12:31;4.40;71.20
12006;DHT22;6062;47.294;12.182;2023-03-20T04:14:58;4.30;71.60
12006;DHT22;6062;47.294;12.182;2023-03-20T04:17:24;4.30;71.10
12006;DHT22;6062;47.294;12.182;2023-03-20T04:19:50;4.30;71.10
12006;DHT22;6062;47.294;12.182;2023-03-20T04:22:16;4.30;70.80
12006;DHT22;6062;47.294;12.182;2023-03-20T04:24:41;4.30;70.70
12006;DHT22;6062;47.294;12.182;2023-03-20T04:27:07;4.30;70.80
12006;DHT22;6062;47.294;12.182;2023-03-20T04:29:33;4.20;70.90
12006;DHT22;6062;47.294;12.182;2023-03-20T04:31:58;4.20;71.20
12006;DHT22;6062;47.294;12.182;2023-03-20T04:34:24;4.20;71.40
12006;DHT22;6062;47.294;12.182;2023-03-20T04:36:50;4.20;71.50
12006;DHT22;6062;47.294;12.182;2023-03-20T04:39:15;4.20;71.50
12006;DHT22;6062;47.294;12.182;2023-03-20T04:41:41;4.20;71.60
12006;DHT22;6062;47.294;12.182;2023-03-20T04:44:07;4.20;71.40
12006;DHT22;6062;47.294;12.182;2023-03-20T04:46:33;4.20;71.20
12006;DHT22;6062;47.294;12.182;2023-03-20T04:48:59;4.20;71.40
12006;DHT22;6062;47.294;12.182;2023-03-20T04:51:25;4.20;71.50
12006;DHT22;6062;47.294;12.182;2023-03-20T04:53:50;4.10;71.30
12006;DHT22;6062;47.294;12.182;2023-03-20T04:56:16;4.10;71.40
12006;DHT22;6062;47.294;12.182;2023-03-20T04:58:42;4.10;71.40
12006;DHT22;6062;47.294;12.182;2023-03-20T05:01:07;4.00;71.30
12006;DHT22;6062;47.294;12.182;2023-03-20T05:03:33;4.00;71.60
12006;DHT22;6062;47.294;12.182;2023-03-20T05:05:59;3.90;71.70
12006;DHT22;6062;47.294;12.182;2023-03-20T05:08:25;3.90;71.80
12006;DHT22;6062;47.294;12.182;2023-03-20T05:10:51;3.80;72.00
12006;DHT22;6062;47.294;12.182;2023-03-20T05:13:17;3.70;72.20
12006;DHT22;6062;47.294;12.182;2023-03-20T05:15:43;3.60;72.30
12006;DHT22;6062;47.294;12.182;2023-03-20T05:18:09;3.60;72.80
12006;DHT22;6062;47.294;12.182;2023-03-20T05:20:35;3.60;73.30
12006;DHT22;6062;47.294;12.182;2023-03-20T05:23:01;3.50;73.40
12006;DHT22;6062;47.294;12.182;2023-03-20T05:25:27;3.50;73.70
12006;DHT22;6062;47.294;12.182;2023-03-20T05:27:53;3.50;74.00
12006;DHT22;6062;47.294;12.182;2023-03-20T05:30:19;3.50;74.50
12006;DHT22;6062;47.294;12.182;2023-03-20T05:32:48;3.60;74.40
12006;DHT22;6062;47.294;12.182;2023-03-20T05:35:14;3.60;74.60
12006;DHT22;6062;47.294;12.182;2023-03-20T05:37:40;3.60;74.60
12006;DHT22;6062;47.294;12.182;2023-03-20T05:40:06;3.60;74.80
12006;DHT22;6062;47.294;12.182;2023-03-20T05:42:36;3.60;75.10
12006;DHT22;6062;47.294;12.182;2023-03-20T05:45:03;3.70;74.90
12006;DHT22;6062;47.294;12.182;2023-03-20T05:47:29;3.70;75.00
12006;DHT22;6062;47.294;12.182;2023-03-20T05:49:54;3.70;75.00
12006;DHT22;6062;47.294;12.182;2023-03-20T05:52:20;3.80;74.90
12006;DHT22;6062;47.294;12.182;2023-03-20T05:54:47;3.80;74.70
12006;DHT22;6062;47.294;12.182;2023-03-20T05:57:12;3.90;74.60
12006;DHT22;6062;47.294;12.182;2023-03-20T05:59:38;3.90;74.60
12006;DHT22;6062;47.294;12.182;2023-03-20T06:02:04;3.90;74.70
12006;DHT22;6062;47.294;12.182;2023-03-20T06:04:29;3.90;74.40
12006;DHT22;6062;47.294;12.182;2023-03-20T06:06:56;4.00;74.40
12006;DHT22;6062;47.294;12.182;2023-03-20T06:09:21;4.00;74.40
12006;DHT22;6062;47.294;12.182;2023-03-20T06:11:47;4.10;74.30
12006;DHT22;6062;47.294;12.182;2023-03-20T06:14:13;4.10;74.30
12006;DHT22;6062;47.294;12.182;2023-03-20T06:16:39;4.20;74.10
12006;DHT22;6062;47.294;12.182;2023-03-20T06:19:04;4.20;74.00
12006;DHT22;6062;47.294;12.182;2023-03-20T06:21:30;4.30;73.80
12006;DHT22;6062;47.294;12.182;2023-03-20T06:23:56;4.30;73.90
12006;DHT22;6062;47.294;12.182;2023-03-20T06:26:24;4.40;73.80
12006;DHT22;6062;47.294;12.182;2023-03-20T06:28:50;4.50;73.60
12006;DHT22;6062;47.294;12.182;2023-03-20T06:31:16;4.50;73.30
12006;DHT22;6062;47.294;12.182;2023-03-20T06:33:42;4.50;73.10
12006;DHT22;6062;47.294;12.182;2023-03-20T06:36:09;4.60;73.00
12006;DHT22;6062;47.294;12.182;2023-03-20T06:38:35;4.60;72.90
12006;DHT22;6062;47.294;12.182;2023-03-20T06:41:00;4.60;72.70
12006;DHT22;6062;47.294;12.182;2023-03-20T06:43:26;4.60;72.70
12006;DHT22;6062;47.294;12.182;2023-03-20T06:45:52;4.70;73.00
12006;DHT22;6062;47.294;12.182;2023-03-20T06:48:18;4.70;73.00
12006;DHT22;6062;47.294;12.182;2023-03-20T06:50:47;4.80;72.80
12006;DHT22;6062;47.294;12.182;2023-03-20T06:53:14;4.80;72.80
12006;DHT22;6062;47.294;12.182;2023-03-20T06:55:41;4.90;72.80
12006;DHT22;6062;47.294;12.182;2023-03-20T06:58:10;5.00;72.80
12006;DHT22;6062;47.294;12.182;2023-03-20T07:00:36;5.10;72.50
12006;DHT22;6062;47.294;12.182;2023-03-20T07:03:02;5.20;72.30
12006;DHT22;6062;47.294;12.182;2023-03-20T07:05:28;5.30;71.90
12006;DHT22;6062;47.294;12.182;2023-03-20T07:07:54;5.40;71.70
12006;DHT22;6062;47.294;12.182;2023-03-20T07:10:20;5.50;71.40
12006;DHT22;6062;47.294;12.182;2023-03-20T07:12:46;5.70;70.90
12006;DHT22;6062;47.294;12.182;2023-03-20T07:15:12;5.70;70.50
12006;DHT22;6062;47.294;12.182;2023-03-20T07:17:38;5.80;70.10
12006;DHT22;6062;47.294;12.182;2023-03-20T07:20:04;5.90;69.60
12006;DHT22;6062;47.294;12.182;2023-03-20T07:22:30;5.90;69.10
12006;DHT22;6062;47.294;12.182;2023-03-20T07:24:56;6.00;68.80
12006;DHT22;6062;47.294;12.182;2023-03-20T07:27:22;6.00;68.80
12006;DHT22;6062;47.294;12.182;2023-03-20T07:29:48;6.00;68.70
12006;DHT22;6062;47.294;12.182;2023-03-20T07:32:14;6.00;68.40
12006;DHT22;6062;47.294;12.182;2023-03-20T07:34:42;6.00;68.90
12006;DHT22;6062;47.294;12.182;2023-03-20T07:37:08;6.00;68.10
12006;DHT22;6062;47.294;12.182;2023-03-20T07:39:34;6.00;68.10
12006;DHT22;6062;47.294;12.182;2023-03-20T07:42:00;6.10;68.10
12006;DHT22;6062;47.294;12.182;2023-03-20T07:44:26;6.10;67.80
12006;DHT22;6062;47.294;12.182;2023-03-20T07:46:52;6.10;67.60
12006;DHT22;6062;47.294;12.182;2023-03-20T07:49:18;6.20;67.40
12006;DHT22;6062;47.294;12.182;2023-03-20T07:51:44;6.20;67.30
12006;DHT22;6062;47.294;12.182;2023-03-20T07:54:11;6.30;67.20
12006;DHT22;6062;47.294;12.182;2023-03-20T07:56:37;6.40;66.90
12006;DHT22;6062;47.294;12.182;2023-03-20T07:59:02;6.50;66.60
12006;DHT22;6062;47.294;12.182;2023-03-20T08:01:28;6.50;66.30
12006;DHT22;6062;47.294;12.182;2023-03-20T08:03:54;6.60;66.10
12006;DHT22;6062;47.294;12.182;2023-03-20T08:06:20;6.70;65.90
12006;DHT22;6062;47.294;12.182;2023-03-20T08:08:46;6.80;65.70
12006;DHT22;6062;47.294;12.182;2023-03-20T08:11:12;6.90;65.60
12006;DHT22;6062;47.294;12.182;2023-03-20T08:13:38;6.90;65.30
12006;DHT22;6062;47.294;12.182;2023-03-20T08:16:03;7.00;65.10
12006;DHT22;6062;47.294;12.182;2023-03-20T08:18:30;7.10;65.00
12006;DHT22;6062;47.294;12.182;2023-03-20T08:20:55;7.20;65.00
12006;DHT22;6062;47.294;12.182;2023-03-20T08:23:21;7.40;65.20
12006;DHT22;6062;47.294;12.182;2023-03-20T08:25:51;7.50;65.00
12006;DHT22;6062;47.294;12.182;2023-03-20T08:28:18;7.70;64.70
12006;DHT22;6062;47.294;12.182;2023-03-20T08:30:45;7.80;64.40
12006;DHT22;6062;47.294;12.182;2023-03-20T08:33:12;8.00;64.80
12006;DHT22;6062;47.294;12.182;2023-03-20T08:35:39;8.10;63.80
12006;DHT22;6062;47.294;12.182;2023-03-20T08:38:05;8.30;63.20
12006;DHT22;6062;47.294;12.182;2023-03-20T08:40:31;8.40;62.80
12006;DHT22;6062;47.294;12.182;2023-03-20T08:42:57;8.50;62.30
12006;DHT22;6062;47.294;12.182;2023-03-20T08:45:24;8.60;61.90
12006;DHT22;6062;47.294;12.182;2023-03-20T08:47:50;8.70;61.40
12006;DHT22;6062;47.294;12.182;2023-03-20T08:50:17;8.80;61.10
12006;DHT22;6062;47.294;12.182;2023-03-20T08:52:43;8.80;60.60
12006;DHT22;6062;47.294;12.182;2023-03-20T08:55:12;8.80;60.40
12006;DHT22;6062;47.294;12.182;2023-03-20T08:57:39;8.80;59.90
12006;DHT22;6062;47.294;12.182;2023-03-20T09:00:06;8.80;60.20
12006;DHT22;6062;47.294;12.182;2023-03-20T09:02:34;8.70;60.30
12006;DHT22;6062;47.294;12.182;2023-03-20T09:05:00;8.70;60.30
12006;DHT22;6062;47.294;12.182;2023-03-20T09:07:26;8.70;60.50
12006;DHT22;6062;47.294;12.182;2023-03-20T09:09:51;8.60;60.70
12006;DHT22;6062;47.294;12.182;2023-03-20T09:12:17;8.60;60.90
12006;DHT22;6062;47.294;12.182;2023-03-20T09:14:43;8.60;61.10
12006;DHT22;6062;47.294;12.182;2023-03-20T09:17:09;8.70;61.20
12006;DHT22;6062;47.294;12.182;2023-03-20T09:19:35;8.70;62.00
12006;DHT22;6062;47.294;12.182;2023-03-20T09:22:04;8.80;61.40
12006;DHT22;6062;47.294;12.182;2023-03-20T09:24:30;8.80;61.10
12006;DHT22;6062;47.294;12.182;2023-03-20T09:26:57;8.90;61.10
12006;DHT22;6062;47.294;12.182;2023-03-20T09:29:25;9.00;60.90
12006;DHT22;6062;47.294;12.182;2023-03-20T09:31:54;9.10;60.90
12006;DHT22;6062;47.294;12.182;2023-03-20T09:34:20;9.20;60.70
12006;DHT22;6062;47.294;12.182;2023-03-20T09:36:46;9.40;60.40
12006;DHT22;6062;47.294;12.182;2023-03-20T09:39:12;9.50;60.20
12006;DHT22;6062;47.294;12.182;2023-03-20T09:41:38;9.70;60.10
12006;DHT22;6062;47.294;12.182;2023-03-20T09:47:31;10.00;59.40
12006;DHT22;6062;47.294;12.182;2023-03-20T09:50:24;10.10;58.10
12006;DHT22;6062;47.294;12.182;2023-03-20T09:53:19;10.20;57.60
12006;DHT22;6062;47.294;12.182;2023-03-20T09:55:52;10.30;57.40
12006;DHT22;6062;47.294;12.182;2023-03-20T09:58:34;10.40;57.40
12006;DHT22;6062;47.294;12.182;2023-03-20T10:01:04;10.40;57.20
12006;DHT22;6062;47.294;12.182;2023-03-20T10:03:47;10.40;56.60
12006;DHT22;6062;47.294;12.182;2023-03-20T10:06:16;10.30;56.40
12006;DHT22;6062;47.294;12.182;2023-03-20T10:08:44;10.20;56.70
12006;DHT22;6062;47.294;12.182;2023-03-20T10:13:57;10.00;57.20
12006;DHT22;6062;47.294;12.182;2023-03-20T10:19:31;9.90;56.80
12006;DHT22;6062;47.294;12.182;2023-03-20T10:22:24;9.70;57.00
12006;DHT22;6062;47.294;12.182;2023-03-20T10:28:00;9.40;57.50
12006;DHT22;6062;47.294;12.182;2023-03-20T10:33:49;9.10;57.90
12006;DHT22;6062;47.294;12.182;2023-03-20T10:42:42;8.90;59.80
12006;DHT22;6062;47.294;12.182;2023-03-20T10:45:28;8.90;60.00
12006;DHT22;6062;47.294;12.182;2023-03-20T10:48:03;9.00;60.00
12006;DHT22;6062;47.294;12.182;2023-03-20T10:50:40;9.10;60.00
12006;DHT22;6062;47.294;12.182;2023-03-20T10:53:22;9.20;59.90
12006;DHT22;6062;47.294;12.182;2023-03-20T10:56:11;9.30;59.60
12006;DHT22;6062;47.294;12.182;2023-03-20T10:58:42;9.50;59.20
12006;DHT22;6062;47.294;12.182;2023-03-20T11:01:10;9.60;58.90
12006;DHT22;6062;47.294;12.182;2023-03-20T11:03:36;9.70;58.60
12006;DHT22;6062;47.294;12.182;2023-03-20T11:06:18;9.80;58.70
12006;DHT22;6062;47.294;12.182;2023-03-20T11:08:50;9.90;58.40
12006;DHT22;6062;47.294;12.182;2023-03-20T11:11:29;10.10;58.90
12006;DHT22;6062;47.294;12.182;2023-03-20T11:14:18;10.30;58.90
12006;DHT22;6062;47.294;12.182;2023-03-20T11:16:59;10.70;59.60
12006;DHT22;6062;47.294;12.182;2023-03-20T11:19:35;11.20;59.30
12006;DHT22;6062;47.294;12.182;2023-03-20T11:24:50;12.40;58.80
12006;DHT22;6062;47.294;12.182;2023-03-20T11:27:23;13.10;58.80
12006;DHT22;6062;47.294;12.182;2023-03-20T11:29:51;13.90;57.80
12006;DHT22;6062;47.294;12.182;2023-03-20T11:37:44;16.00;51.20
12006;DHT22;6062;47.294;12.182;2023-03-20T11:40:22;16.40;48.20
12006;DHT22;6062;47.294;12.182;2023-03-20T11:45:36;17.10;45.60
12006;DHT22;6062;47.294;12.182;2023-03-20T11:48:05;17.30;44.10
12006;DHT22;6062;47.294;12.182;2023-03-20T11:51:01;17.50;42.40
12006;DHT22;6062;47.294;12.182;2023-03-20T11:53:33;17.60;42.10
12006;DHT22;6062;47.294;12.182;2023-03-20T11:56:11;17.70;41.90
12006;DHT22;6062;47.294;12.182;2023-03-20T12:01:21;17.80;41.30
12006;DHT22;6062;47.294;12.182;2023-03-20T12:04:03;17.70;41.60
12006;DHT22;6062;47.294;12.182;2023-03-20T12:06:48;17.70;41.10
12006;DHT22;6062;47.294;12.182;2023-03-20T12:12:07;17.40;40.90
12006;DHT22;6062;47.294;12.182;2023-03-20T12:15:13;17.10;40.80
12006;DHT22;6062;47.294;12.182;2023-03-20T12:18:01;16.90;41.00
12006;DHT22;6062;47.294;12.182;2023-03-20T12:20:35;16.60;41.20
12006;DHT22;6062;47.294;12.182;2023-03-20T12:34:34;15.40;42.60
12006;DHT22;6062;47.294;12.182;2023-03-20T12:37:03;15.20;43.00
12006;DHT22;6062;47.294;12.182;2023-03-20T12:39:33;14.90;42.20
12006;DHT22;6062;47.294;12.182;2023-03-20T12:42:38;14.60;42.30
12006;DHT22;6062;47.294;12.182;2023-03-20T12:45:15;14.30;43.10
12006;DHT22;6062;47.294;12.182;2023-03-20T12:51:05;13.60;43.80
12006;DHT22;6062;47.294;12.182;2023-03-20T12:56:51;12.80;45.20
12006;DHT22;6062;47.294;12.182;2023-03-20T13:02:36;12.00;47.00
12006;DHT22;6062;47.294;12.182;2023-03-20T13:06:08;11.70;47.90
12006;DHT22;6062;47.294;12.182;2023-03-20T13:08:51;11.40;48.70
12006;DHT22;6062;47.294;12.182;2023-03-20T13:14:45;10.90;50.60
12006;DHT22;6062;47.294;12.182;2023-03-20T13:20:20;10.80;51.70
12006;DHT22;6062;47.294;12.182;2023-03-20T13:28:32;10.60;51.40
12006;DHT22;6062;47.294;12.182;2023-03-20T13:34:05;10.40;52.90
12006;DHT22;6062;47.294;12.182;2023-03-20T13:37:20;10.30;53.10
12006;DHT22;6062;47.294;12.182;2023-03-20T13:40:09;10.20;53.60
12006;DHT22;6062;47.294;12.182;2023-03-20T13:43:02;10.20;53.40
12006;DHT22;6062;47.294;12.182;2023-03-20T13:46:06;10.10;53.40
12006;DHT22;6062;47.294;12.182;2023-03-20T13:48:38;10.00;53.40
12006;DHT22;6062;47.294;12.182;2023-03-20T13:51:13;9.80;53.90
12006;DHT22;6062;47.294;12.182;2023-03-20T14:03:12;9.30;55.30
12006;DHT22;6062;47.294;12.182;2023-03-20T14:05:41;9.20;55.80
12006;DHT22;6062;47.294;12.182;2023-03-20T14:13:31;9.20;56.00
12006;DHT22;6062;47.294;12.182;2023-03-20T14:16:06;9.30;55.90
12006;DHT22;6062;47.294;12.182;2023-03-20T14:18:33;9.30;56.10
12006;DHT22;6062;47.294;12.182;2023-03-20T14:21:03;9.30;56.10
12006;DHT22;6062;47.294;12.182;2023-03-20T14:23:42;9.40;56.40
12006;DHT22;6062;47.294;12.182;2023-03-20T14:26:28;9.50;56.30
12006;DHT22;6062;47.294;12.182;2023-03-20T14:29:01;9.50;56.20
12006;DHT22;6062;47.294;12.182;2023-03-20T14:31:48;9.60;56.10
12006;DHT22;6062;47.294;12.182;2023-03-20T14:34:20;9.70;56.10
12006;DHT22;6062;47.294;12.182;2023-03-20T14:36:59;9.80;56.10
12006;DHT22;6062;47.294;12.182;2023-03-20T14:45:58;9.80;55.50
12006;DHT22;6062;47.294;12.182;2023-03-20T14:56:47;9.50;55.80
12006;DHT22;6062;47.294;12.182;2023-03-20T14:59:16;9.40;55.80
12006;DHT22;6062;47.294;12.182;2023-03-20T15:04:39;9.30;56.00
12006;DHT22;6062;47.294;12.182;2023-03-20T15:07:13;9.30;56.30
12006;DHT22;6062;47.294;12.182;2023-03-20T15:09:44;9.30;56.40
12006;DHT22;6062;47.294;12.182;2023-03-20T15:12:15;9.20;56.30
12006;DHT22;6062;47.294;12.182;2023-03-20T15:14:50;9.20;56.30
12006;DHT22;6062;47.294;12.182;2023-03-20T15:17:24;9.20;56.30
12006;DHT22;6062;47.294;12.182;2023-03-20T15:22:52;9.20;56.50
12006;DHT22;6062;47.294;12.182;2023-03-20T15:25:23;9.20;56.80
12006;DHT22;6062;47.294;12.182;2023-03-20T15:27:53;9.20;56.90
12006;DHT22;6062;47.294;12.182;2023-03-20T15:30:21;9.20;56.70
12006;DHT22;6062;47.294;12.182;2023-03-20T15:32:48;9.20;56.60
12006;DHT22;6062;47.294;12.182;2023-03-20T15:35:19;9.10;56.50
12006;DHT22;6062;47.294;12.182;2023-03-20T15:37:49;9.10;56.50
12006;DHT22;6062;47.294;12.182;2023-03-20T15:40:29;9.00;56.50
12006;DHT22;6062;47.294;12.182;2023-03-20T15:43:09;8.90;56.60
12006;DHT22;6062;47.294;12.182;2023-03-20T15:45:40;8.90;57.00
12006;DHT22;6062;47.294;12.182;2023-03-20T15:50:43;8.70;57.00
12006;DHT22;6062;47.294;12.182;2023-03-20T15:53:27;8.60;57.30
12006;DHT22;6062;47.294;12.182;2023-03-20T15:56:05;8.50;57.50
12006;DHT22;6062;47.294;12.182;2023-03-20T15:58:31;8.40;57.40
12006;DHT22;6062;47.294;12.182;2023-03-20T16:00:59;8.30;57.40
12006;DHT22;6062;47.294;12.182;2023-03-20T16:03:28;8.30;57.50
12006;DHT22;6062;47.294;12.182;2023-03-20T16:05:58;8.20;57.60
12006;DHT22;6062;47.294;12.182;2023-03-20T16:08:31;8.10;58.00
12006;DHT22;6062;47.294;12.182;2023-03-20T16:11:03;8.00;58.40
12006;DHT22;6062;47.294;12.182;2023-03-20T16:13:44;7.90;58.60
12006;DHT22;6062;47.294;12.182;2023-03-20T16:16:22;7.80;58.70
12006;DHT22;6062;47.294;12.182;2023-03-20T16:18:49;7.70;59.10
12006;DHT22;6062;47.294;12.182;2023-03-20T16:21:26;7.60;59.10
12006;DHT22;6062;47.294;12.182;2023-03-20T16:23:56;7.50;59.20
12006;DHT22;6062;47.294;12.182;2023-03-20T16:26:25;7.40;59.50
12006;DHT22;6062;47.294;12.182;2023-03-20T16:28:59;7.30;59.70
12006;DHT22;6062;47.294;12.182;2023-03-20T16:31:34;7.30;60.00
12006;DHT22;6062;47.294;12.182;2023-03-20T16:34:08;7.30;60.00
12006;DHT22;6062;47.294;12.182;2023-03-20T16:36:50;7.30;60.20
12006;DHT22;6062;47.294;12.182;2023-03-20T16:39:19;7.20;60.30
12006;DHT22;6062;47.294;12.182;2023-03-20T16:42:40;7.20;60.20
12006;DHT22;6062;47.294;12.182;2023-03-20T16:44:53;7.20;60.30
12006;DHT22;6062;47.294;12.182;2023-03-20T16:47:22;7.20;60.30
12006;DHT22;6062;47.294;12.182;2023-03-20T16:50:54;7.20;60.40
12006;DHT22;6062;47.294;12.182;2023-03-20T16:53:02;7.10;60.80
12006;DHT22;6062;47.294;12.182;2023-03-20T16:55:34;7.10;60.50
12006;DHT22;6062;47.294;12.182;2023-03-20T16:58:10;7.10;60.60
12006;DHT22;6062;47.294;12.182;2023-03-20T17:01:02;7.00;60.40
12006;DHT22;6062;47.294;12.182;2023-03-20T17:03:48;7.00;60.70
12006;DHT22;6062;47.294;12.182;2023-03-20T17:08:49;6.80;61.20
12006;DHT22;6062;47.294;12.182;2023-03-20T17:11:30;6.70;61.10
12006;DHT22;6062;47.294;12.182;2023-03-20T17:14:00;6.60;61.60
12006;DHT22;6062;47.294;12.182;2023-03-20T17:16:27;6.50;61.20
12006;DHT22;6062;47.294;12.182;2023-03-20T17:19:22;6.50;60.90
12006;DHT22;6062;47.294;12.182;2023-03-20T17:21:49;6.40;60.70
12006;DHT22;6062;47.294;12.182;2023-03-20T17:24:16;6.40;60.80
12006;DHT22;6062;47.294;12.182;2023-03-20T17:26:49;6.30;61.10
12006;DHT22;6062;47.294;12.182;2023-03-20T17:29:18;6.20;61.20
12006;DHT22;6062;47.294;12.182;2023-03-20T17:31:44;6.10;61.00
12006;DHT22;6062;47.294;12.182;2023-03-20T17:34:12;6.00;61.00
12006;DHT22;6062;47.294;12.182;2023-03-20T17:36:39;5.90;61.20
12006;DHT22;6062;47.294;12.182;2023-03-20T17:39:05;5.80;61.20
12006;DHT22;6062;47.294;12.182;2023-03-20T17:41:31;5.70;61.40
12006;DHT22;6062;47.294;12.182;2023-03-20T17:43:57;5.60;61.70
12006;DHT22;6062;47.294;12.182;2023-03-20T17:46:26;5.60;61.70
12006;DHT22;6062;47.294;12.182;2023-03-20T17:49:00;5.50;61.90
12006;DHT22;6062;47.294;12.182;2023-03-20T17:51:28;5.40;62.30
12006;DHT22;6062;47.294;12.182;2023-03-20T17:53:53;5.30;62.30
12006;DHT22;6062;47.294;12.182;2023-03-20T17:56:23;5.30;62.70
12006;DHT22;6062;47.294;12.182;2023-03-20T17:59:00;5.20;63.00
12006;DHT22;6062;47.294;12.182;2023-03-20T18:01:28;5.20;63.20
12006;DHT22;6062;47.294;12.182;2023-03-20T18:03:54;5.10;63.50
12006;DHT22;6062;47.294;12.182;2023-03-20T18:06:31;5.10;63.70
12006;DHT22;6062;47.294;12.182;2023-03-20T18:08:59;5.10;64.20
12006;DHT22;6062;47.294;12.182;2023-03-20T18:11:26;5.00;63.90
12006;DHT22;6062;47.294;12.182;2023-03-20T18:13:53;5.00;64.50
12006;DHT22;6062;47.294;12.182;2023-03-20T18:16:24;5.00;63.60
12006;DHT22;6062;47.294;12.182;2023-03-20T18:18:51;5.00;63.30
12006;DHT22;6062;47.294;12.182;2023-03-20T18:21:18;5.00;63.00
12006;DHT22;6062;47.294;12.182;2023-03-20T18:23:44;4.90;62.80
12006;DHT22;6062;47.294;12.182;2023-03-20T18:28:46;4.80;62.60
12006;DHT22;6062;47.294;12.182;2023-03-20T18:31:13;4.80;63.00
12006;DHT22;6062;47.294;12.182;2023-03-20T18:33:44;4.70;63.50
12006;DHT22;6062;47.294;12.182;2023-03-20T18:36:16;4.60;63.70
12006;DHT22;6062;47.294;12.182;2023-03-20T18:38:43;4.60;64.30
12006;DHT22;6062;47.294;12.182;2023-03-20T18:41:09;4.50;64.50
12006;DHT22;6062;47.294;12.182;2023-03-20T18:43:37;4.50;64.00
12006;DHT22;6062;47.294;12.182;2023-03-20T18:46:03;4.40;64.70